Las Vegas, Nevada
Current Conditions -  °F | °C
As of 1:56 AM on Wednesday 22 Oct 2014 (Local Time) from KLAS Reporting Station
Few Clouds Few Clouds  
Wind Chill: 19°   Ceiling: Unl
Heat Index: 19°   Visibility: 10mi
Dew Point: -4°   Wind: 9mph
Humidity: 20%   Direction: 200°SSW
Pressure: 29.86"   Gusts: NA
Location:  36.17°N, 115.13°W
Report Text: KLAS 220856Z 20008KT 10SM FEW250 19/M04 A2986 RMK AO2 SLP091 T01891044 53004
Loading
Personal Weather Stations






























Interactive Weather Map New forecast layout! Learn more

10-Day Weather Forecast

Advertisements
Track Severe Weather on mobile